createdAt,value
2022-08-26T00:00:46.717Z,0.00
2022-08-26T00:01:46.748Z,0.00
2022-08-26T00:02:46.709Z,0.00
2022-08-26T00:03:46.713Z,0.00
2022-08-26T00:04:46.669Z,0.00
2022-08-26T00:05:46.649Z,0.00
2022-08-26T00:06:46.639Z,0.00
2022-08-26T00:07:46.628Z,0.00
2022-08-26T00:08:46.770Z,0.00
2022-08-26T00:09:47.034Z,0.00
2022-08-26T00:10:46.598Z,0.00
2022-08-26T00:11:46.598Z,0.00
2022-08-26T00:12:46.579Z,0.00
2022-08-26T00:13:48.015Z,0.00
2022-08-26T00:14:46.551Z,0.00
2022-08-26T00:15:46.590Z,0.00
2022-08-26T00:16:47.826Z,0.00
2022-08-26T00:17:46.510Z,0.00
2022-08-26T00:18:46.504Z,0.00
2022-08-26T00:19:46.491Z,0.00
2022-08-26T00:20:46.482Z,0.00
2022-08-26T00:21:46.480Z,0.00
2022-08-26T00:22:46.451Z,0.00
2022-08-26T00:23:46.441Z,0.00
2022-08-26T00:24:48.022Z,0.00
2022-08-26T00:25:46.427Z,0.00
2022-08-26T00:26:46.438Z,0.00
2022-08-26T00:27:46.483Z,0.00
2022-08-26T00:28:46.401Z,0.00
2022-08-26T00:29:46.372Z,0.00
2022-08-26T00:30:46.372Z,0.00
2022-08-26T00:31:46.376Z,0.00
2022-08-26T00:32:46.451Z,0.00
2022-08-26T00:33:46.332Z,0.00
2022-08-26T00:34:46.325Z,0.00
2022-08-26T00:35:46.311Z,0.00
2022-08-26T00:36:46.301Z,0.00
2022-08-26T00:37:46.283Z,0.00
2022-08-26T00:38:46.292Z,0.00
2022-08-26T00:39:46.387Z,0.00
2022-08-26T00:40:46.253Z,0.00
2022-08-26T00:41:46.243Z,0.00
2022-08-26T00:42:46.273Z,0.00
2022-08-26T00:43:47.446Z,0.00
2022-08-26T00:44:46.204Z,0.00
2022-08-26T00:45:46.247Z,0.00
2022-08-26T00:46:46.849Z,0.00
2022-08-26T00:47:46.173Z,0.00
2022-08-26T00:48:46.164Z,0.00
2022-08-26T00:49:46.586Z,0.00
2022-08-26T00:50:46.144Z,0.00
2022-08-26T00:51:46.134Z,0.00
2022-08-26T00:52:46.126Z,0.00
2022-08-26T00:53:46.106Z,0.00
2022-08-26T00:54:46.095Z,0.00
2022-08-26T00:55:46.095Z,0.00
2022-08-26T00:56:47.015Z,0.00
2022-08-26T00:57:46.056Z,0.00
2022-08-26T00:58:46.046Z,0.00
2022-08-26T00:59:46.035Z,0.00
2022-08-26T01:00:46.092Z,0.00
2022-08-26T01:01:47.492Z,0.00
2022-08-26T01:02:46.910Z,0.00
2022-08-26T01:03:45.988Z,0.00
2022-08-26T01:04:45.978Z,0.00
2022-08-26T01:05:45.968Z,0.00
2022-08-26T01:06:45.967Z,0.00
2022-08-26T01:07:45.946Z,0.00
2022-08-26T01:08:45.927Z,0.00
2022-08-26T01:09:45.918Z,0.00
2022-08-26T01:10:45.908Z,0.00
2022-08-26T01:11:45.937Z,0.00
2022-08-26T01:12:45.880Z,0.00
2022-08-26T01:13:45.878Z,0.00
2022-08-26T01:14:46.523Z,0.00
2022-08-26T01:15:45.856Z,0.00
2022-08-26T01:16:45.861Z,0.00
2022-08-26T01:17:45.849Z,0.00
2022-08-26T01:18:45.808Z,0.00
2022-08-26T01:19:45.810Z,0.00
2022-08-26T01:20:45.788Z,0.00
2022-08-26T01:21:45.779Z,0.00
2022-08-26T01:22:45.769Z,0.00
2022-08-26T01:23:45.769Z,0.00
2022-08-26T01:24:45.739Z,0.00
2022-08-26T01:25:45.738Z,0.00
2022-08-26T01:26:45.724Z,0.00
2022-08-26T01:27:45.710Z,0.00
2022-08-26T01:28:45.720Z,0.00
2022-08-26T01:29:45.698Z,0.00
2022-08-26T01:30:45.681Z,0.00
2022-08-26T01:31:45.701Z,0.00
2022-08-26T01:32:45.651Z,0.00
2022-08-26T01:33:45.650Z,0.00
2022-08-26T01:34:45.651Z,0.00
2022-08-26T01:35:45.623Z,0.00
2022-08-26T01:36:50.598Z,0.00
2022-08-26T01:37:46.601Z,0.00
2022-08-26T01:38:45.590Z,0.00
2022-08-26T01:39:45.610Z,0.00
2022-08-26T01:40:45.580Z,0.00
2022-08-26T01:41:45.561Z,0.00
2022-08-26T01:42:45.559Z,0.00
2022-08-26T01:43:45.542Z,0.00
2022-08-26T01:44:45.531Z,0.00
2022-08-26T01:45:45.571Z,0.00
2022-08-26T01:46:45.502Z,0.00
2022-08-26T01:47:45.493Z,0.00
2022-08-26T01:48:45.491Z,0.00
2022-08-26T01:49:45.473Z,0.00
2022-08-26T01:50:45.475Z,0.00
2022-08-26T01:51:45.482Z,0.00
2022-08-26T01:52:45.442Z,0.00
2022-08-26T01:53:46.090Z,0.00
2022-08-26T01:54:46.273Z,0.00
2022-08-26T01:55:45.412Z,0.00
2022-08-26T01:56:45.407Z,0.00
2022-08-26T01:57:45.404Z,0.00
2022-08-26T01:58:45.385Z,0.00
2022-08-26T01:59:45.373Z,0.00
2022-08-26T02:00:45.378Z,0.00
2022-08-26T02:01:45.353Z,0.00
2022-08-26T02:02:45.354Z,0.00
2022-08-26T02:03:45.327Z,0.00
2022-08-26T02:04:45.347Z,0.00
2022-08-26T02:05:45.304Z,0.00
2022-08-26T02:06:45.294Z,0.00
2022-08-26T02:07:45.284Z,0.00
2022-08-26T02:08:45.296Z,0.00
2022-08-26T02:09:45.264Z,0.00
2022-08-26T02:10:45.252Z,0.00
2022-08-26T02:11:45.248Z,0.00
2022-08-26T02:12:45.226Z,0.00
2022-08-26T02:13:45.218Z,0.00
2022-08-26T02:14:45.226Z,0.00
2022-08-26T02:15:45.195Z,0.00
2022-08-26T02:16:45.234Z,0.00
2022-08-26T02:17:45.183Z,0.00
2022-08-26T02:18:45.163Z,0.00
2022-08-26T02:19:45.175Z,0.00
2022-08-26T02:20:45.145Z,0.00
2022-08-26T02:21:45.136Z,0.00
2022-08-26T02:22:45.341Z,0.00
2022-08-26T02:23:45.525Z,0.00
2022-08-26T02:24:45.116Z,0.00
2022-08-26T02:25:45.096Z,0.00
2022-08-26T02:26:45.079Z,0.00
2022-08-26T02:27:45.066Z,0.00
2022-08-26T02:28:45.055Z,0.00
2022-08-26T02:29:45.060Z,0.00
2022-08-26T02:30:45.062Z,0.00
2022-08-26T02:31:45.077Z,0.00
2022-08-26T02:32:45.007Z,0.00
2022-08-26T02:33:45.009Z,0.00
2022-08-26T02:34:45.005Z,0.00
2022-08-26T02:35:45.007Z,0.00
2022-08-26T02:36:44.968Z,0.00
2022-08-26T02:37:44.966Z,0.00
2022-08-26T02:38:44.950Z,0.00
2022-08-26T02:39:44.951Z,0.00
2022-08-26T02:40:44.927Z,0.00
2022-08-26T02:41:45.431Z,0.00
2022-08-26T02:42:44.909Z,0.00
2022-08-26T02:43:44.897Z,0.00
2022-08-26T02:44:44.884Z,0.00
2022-08-26T02:45:44.881Z,0.00
2022-08-26T02:46:46.800Z,0.00
2022-08-26T02:47:44.869Z,0.00
2022-08-26T02:48:44.839Z,0.00
2022-08-26T02:49:44.829Z,0.00
2022-08-26T02:50:44.819Z,0.00
2022-08-26T02:51:44.818Z,0.00
2022-08-26T02:52:44.820Z,0.00
2022-08-26T02:53:44.788Z,0.00
2022-08-26T02:54:44.788Z,0.00
2022-08-26T02:55:44.791Z,0.00
2022-08-26T02:56:44.750Z,0.00
2022-08-26T02:57:44.750Z,0.00
2022-08-26T02:58:44.741Z,0.00
2022-08-26T02:59:44.729Z,0.00
2022-08-26T03:00:52.531Z,0.00
2022-08-26T03:01:45.751Z,0.00
2022-08-26T03:02:44.690Z,0.00
2022-08-26T03:03:44.700Z,0.00
2022-08-26T03:04:57.733Z,0.00
2022-08-26T03:05:45.661Z,0.00
2022-08-26T03:06:47.102Z,0.00
2022-08-26T03:07:45.640Z,0.00
2022-08-26T03:08:44.622Z,0.00
2022-08-26T03:09:44.632Z,0.00
2022-08-26T03:10:44.602Z,0.00
2022-08-26T03:11:44.592Z,0.00
2022-08-26T03:12:44.592Z,0.00
2022-08-26T03:13:44.574Z,0.00
2022-08-26T03:14:44.581Z,0.00
2022-08-26T03:15:44.659Z,0.00
2022-08-26T03:16:44.552Z,0.00
2022-08-26T03:17:44.535Z,0.00
2022-08-26T03:18:44.513Z,0.00
2022-08-26T03:19:45.552Z,0.00
2022-08-26T03:20:44.534Z,0.00
2022-08-26T03:21:44.492Z,0.00
2022-08-26T03:22:44.473Z,0.00
2022-08-26T03:23:44.464Z,0.00
2022-08-26T03:24:46.171Z,0.00
2022-08-26T03:25:44.473Z,0.00
2022-08-26T03:26:52.657Z,0.00
2022-08-26T03:27:45.424Z,0.00
2022-08-26T03:28:44.404Z,0.00
2022-08-26T03:29:44.402Z,0.00
2022-08-26T03:30:45.780Z,0.00
2022-08-26T03:31:44.442Z,0.00
2022-08-26T03:32:44.364Z,0.00
2022-08-26T03:33:44.363Z,0.00
2022-08-26T03:34:44.345Z,0.00
2022-08-26T03:35:44.344Z,0.00
2022-08-26T03:36:44.343Z,0.00
2022-08-26T03:37:44.323Z,0.00
2022-08-26T03:38:44.304Z,0.00
2022-08-26T03:39:44.294Z,0.00
2022-08-26T03:40:44.283Z,0.00
2022-08-26T03:41:44.266Z,0.00
2022-08-26T03:42:45.284Z,0.00
2022-08-26T03:43:44.255Z,0.00
2022-08-26T03:44:44.236Z,0.00
2022-08-26T03:45:44.235Z,0.00
2022-08-26T03:46:44.283Z,0.00
2022-08-26T03:47:44.234Z,0.00
2022-08-26T03:48:44.196Z,0.00
2022-08-26T03:49:44.186Z,0.00
2022-08-26T03:50:44.177Z,0.00
2022-08-26T03:51:44.166Z,0.00
2022-08-26T03:52:44.270Z,0.00
2022-08-26T03:53:44.165Z,0.00
2022-08-26T03:54:44.131Z,0.00
2022-08-26T03:55:44.127Z,0.00
2022-08-26T03:56:44.106Z,0.00
2022-08-26T03:57:44.113Z,0.00
2022-08-26T03:58:44.106Z,0.00
2022-08-26T03:59:44.076Z,0.00
2022-08-26T04:00:44.065Z,0.00
2022-08-26T04:01:44.116Z,0.00
2022-08-26T04:02:44.094Z,0.00
2022-08-26T04:03:44.027Z,0.00
2022-08-26T04:04:44.045Z,0.00
2022-08-26T04:05:44.016Z,0.00
2022-08-26T04:06:44.581Z,0.00
2022-08-26T04:07:43.988Z,0.00
2022-08-26T04:08:43.976Z,0.00
2022-08-26T04:09:43.968Z,0.00
2022-08-26T04:10:43.967Z,0.00
2022-08-26T04:11:43.939Z,0.00
2022-08-26T04:12:43.929Z,0.00
2022-08-26T04:13:43.919Z,0.00
2022-08-26T04:14:43.908Z,0.00
2022-08-26T04:15:43.984Z,0.00
2022-08-26T04:16:43.890Z,0.00
2022-08-26T04:17:43.879Z,0.00
2022-08-26T04:18:46.707Z,0.00
2022-08-26T04:19:43.851Z,0.00
2022-08-26T04:20:43.840Z,5.62
2022-08-26T04:21:43.850Z,5.62
2022-08-26T04:22:43.820Z,5.62
2022-08-26T04:23:47.185Z,5.62
2022-08-26T04:24:43.790Z,5.62
2022-08-26T04:25:43.830Z,5.62
2022-08-26T04:26:43.975Z,5.62
2022-08-26T04:27:43.768Z,5.62
2022-08-26T04:28:43.750Z,11.25
2022-08-26T04:29:43.741Z,11.25
2022-08-26T04:30:43.730Z,11.25
2022-08-26T04:31:43.776Z,11.25
2022-08-26T04:32:43.722Z,11.25
2022-08-26T04:33:43.710Z,11.25
2022-08-26T04:34:43.687Z,16.88
2022-08-26T04:35:43.689Z,16.88
2022-08-26T04:36:43.661Z,16.88
2022-08-26T04:37:43.684Z,16.88
2022-08-26T04:38:43.642Z,22.50
2022-08-26T04:39:43.641Z,22.50
2022-08-26T04:40:43.621Z,22.50
2022-08-26T04:41:43.612Z,22.50
2022-08-26T04:42:43.601Z,28.12
2022-08-26T04:43:43.612Z,28.12
2022-08-26T04:44:43.572Z,28.12
2022-08-26T04:45:43.592Z,28.12
2022-08-26T04:46:43.714Z,33.75
2022-08-26T04:47:43.543Z,33.75
2022-08-26T04:48:43.531Z,33.75
2022-08-26T04:49:43.543Z,33.75
2022-08-26T04:50:43.516Z,39.38
2022-08-26T04:51:43.939Z,39.38
2022-08-26T04:52:43.483Z,45.00
2022-08-26T04:53:43.483Z,45.00
2022-08-26T04:54:43.463Z,45.00
2022-08-26T04:55:45.100Z,50.62
2022-08-26T04:56:43.442Z,50.62
2022-08-26T04:57:43.433Z,56.25
2022-08-26T04:58:43.423Z,56.25
2022-08-26T04:59:43.413Z,56.25
2022-08-26T05:00:43.406Z,61.88
2022-08-26T05:01:43.510Z,61.88
2022-08-26T05:02:43.383Z,67.50
2022-08-26T05:03:43.407Z,67.50
2022-08-26T05:04:43.354Z,67.50
2022-08-26T05:05:43.354Z,73.12
2022-08-26T05:06:43.335Z,73.12
2022-08-26T05:07:43.353Z,78.75
2022-08-26T05:08:43.314Z,78.75
2022-08-26T05:09:43.305Z,84.38
2022-08-26T05:10:43.580Z,84.38
2022-08-26T05:11:43.285Z,90.00
2022-08-26T05:12:43.266Z,90.00
2022-08-26T05:13:43.297Z,90.00
2022-08-26T05:14:43.251Z,95.62
2022-08-26T05:15:43.261Z,101.25
2022-08-26T05:16:43.226Z,106.88
2022-08-26T05:17:43.219Z,118.12
2022-08-26T05:18:43.226Z,123.75
2022-08-26T05:19:43.201Z,123.75
2022-08-26T05:20:43.186Z,129.38
2022-08-26T05:21:43.176Z,140.62
2022-08-26T05:22:43.166Z,140.62
2022-08-26T05:23:43.155Z,151.88
2022-08-26T05:24:43.171Z,163.12
2022-08-26T05:25:43.149Z,174.38
2022-08-26T05:26:44.543Z,180.00
2022-08-26T05:27:43.107Z,191.25
2022-08-26T05:28:43.098Z,196.88
2022-08-26T05:29:43.113Z,208.12
2022-08-26T05:30:43.107Z,208.12
2022-08-26T05:31:43.067Z,208.12
2022-08-26T05:32:43.057Z,208.12
2022-08-26T05:33:43.049Z,213.75
2022-08-26T05:34:43.147Z,219.38
2022-08-26T05:35:43.050Z,219.38
2022-08-26T05:36:43.019Z,225.00
2022-08-26T05:37:42.998Z,230.62
2022-08-26T05:38:43.000Z,230.62
2022-08-26T05:39:43.566Z,241.88
2022-08-26T05:40:43.989Z,253.12
2022-08-26T05:41:42.969Z,264.38
2022-08-26T05:42:42.959Z,275.62
2022-08-26T05:43:42.941Z,286.88
2022-08-26T05:44:55.426Z,292.50
2022-08-26T05:45:45.948Z,303.75
2022-08-26T05:46:44.030Z,320.62
2022-08-26T05:47:42.890Z,337.50
2022-08-26T05:48:44.345Z,354.38
2022-08-26T05:49:45.153Z,365.62
2022-08-26T05:50:43.860Z,376.88
2022-08-26T05:51:42.870Z,399.38
2022-08-26T05:52:42.841Z,416.25
2022-08-26T05:53:43.765Z,427.50
2022-08-26T05:54:43.811Z,393.75
2022-08-26T05:55:42.801Z,405.00
2022-08-26T05:56:43.094Z,427.50
2022-08-26T05:57:43.086Z,438.75
2022-08-26T05:58:42.769Z,433.12
2022-08-26T05:59:42.755Z,433.12
2022-08-26T06:00:42.741Z,444.38
2022-08-26T06:01:42.814Z,455.62
2022-08-26T06:02:42.776Z,455.62
2022-08-26T06:03:42.722Z,455.62
2022-08-26T06:04:42.693Z,466.88
2022-08-26T06:05:42.682Z,466.88
2022-08-26T06:06:43.597Z,466.88
2022-08-26T06:07:42.666Z,466.88
2022-08-26T06:08:42.652Z,466.88
2022-08-26T06:09:42.665Z,472.50
2022-08-26T06:10:42.633Z,472.50
2022-08-26T06:11:42.613Z,461.25
2022-08-26T06:12:42.604Z,483.75
2022-08-26T06:13:42.593Z,506.25
2022-08-26T06:14:42.587Z,534.38
2022-08-26T06:15:42.678Z,551.25
2022-08-26T06:16:42.566Z,500.62
2022-08-26T06:17:42.552Z,478.12
2022-08-26T06:18:42.542Z,478.12
2022-08-26T06:19:42.533Z,478.12
2022-08-26T06:20:42.515Z,495.00
2022-08-26T06:21:42.544Z,511.88
2022-08-26T06:22:42.494Z,540.00
2022-08-26T06:23:42.494Z,573.75
2022-08-26T06:24:42.508Z,573.75
2022-08-26T06:25:42.473Z,568.12
2022-08-26T06:26:42.809Z,562.50
2022-08-26T06:27:42.465Z,556.88
2022-08-26T06:28:43.553Z,551.25
2022-08-26T06:29:42.416Z,562.50
2022-08-26T06:30:42.479Z,562.50
2022-08-26T06:31:42.394Z,562.50
2022-08-26T06:32:42.406Z,579.38
2022-08-26T06:33:42.369Z,607.50
2022-08-26T06:34:42.357Z,613.12
2022-08-26T06:35:42.357Z,596.25
2022-08-26T06:36:42.346Z,568.12
2022-08-26T06:37:42.329Z,534.38
2022-08-26T06:38:42.337Z,540.00
2022-08-26T06:39:42.299Z,568.12
2022-08-26T06:40:42.298Z,478.12
2022-08-26T06:41:43.458Z,438.75
2022-08-26T06:42:42.268Z,421.88
2022-08-26T06:43:42.259Z,421.88
2022-08-26T06:44:44.715Z,410.62
2022-08-26T06:45:42.240Z,405.00
2022-08-26T06:46:42.271Z,388.12
2022-08-26T06:47:42.209Z,382.50
2022-08-26T06:48:42.207Z,376.88
2022-08-26T06:49:42.190Z,371.25
2022-08-26T06:50:42.211Z,360.00
2022-08-26T06:51:42.171Z,348.75
2022-08-26T06:52:42.159Z,354.38
2022-08-26T06:53:42.142Z,343.12
2022-08-26T06:54:42.141Z,343.12
2022-08-26T06:55:42.192Z,348.75
2022-08-26T06:56:42.111Z,354.38
2022-08-26T06:57:42.103Z,371.25
2022-08-26T06:58:42.091Z,388.12
2022-08-26T06:59:42.089Z,393.75
2022-08-26T07:00:42.072Z,405.00
2022-08-26T07:01:43.758Z,405.00
2022-08-26T07:02:46.905Z,410.62
2022-08-26T07:03:43.574Z,410.62
2022-08-26T07:04:42.022Z,433.12
2022-08-26T07:05:42.013Z,450.00
2022-08-26T07:06:42.002Z,461.25
2022-08-26T07:07:42.003Z,495.00
2022-08-26T07:08:41.981Z,461.25
2022-08-26T07:09:41.963Z,466.88
2022-08-26T07:10:41.957Z,483.75
2022-08-26T07:11:41.952Z,472.50
2022-08-26T07:12:41.954Z,438.75
2022-08-26T07:13:42.922Z,438.75
2022-08-26T07:14:43.803Z,438.75
2022-08-26T07:15:42.945Z,438.75
2022-08-26T07:16:41.893Z,438.75
2022-08-26T07:17:41.875Z,444.38
2022-08-26T07:18:41.884Z,444.38
2022-08-26T07:19:41.855Z,450.00
2022-08-26T07:20:42.985Z,461.25
2022-08-26T07:21:41.845Z,472.50
2022-08-26T07:22:41.826Z,483.75
2022-08-26T07:23:41.805Z,489.38
2022-08-26T07:24:42.416Z,500.62
2022-08-26T07:25:41.798Z,506.25
2022-08-26T07:26:43.016Z,517.50
2022-08-26T07:27:41.766Z,528.75
2022-08-26T07:28:41.756Z,534.38
2022-08-26T07:29:41.749Z,540.00
2022-08-26T07:30:41.849Z,545.62
2022-08-26T07:31:42.717Z,551.25
2022-08-26T07:32:41.727Z,568.12
2022-08-26T07:33:41.727Z,579.38
2022-08-26T07:34:41.898Z,596.25
2022-08-26T07:35:41.679Z,618.75
2022-08-26T07:36:41.686Z,635.62
2022-08-26T07:37:41.649Z,663.75
2022-08-26T07:38:41.652Z,697.50
2022-08-26T07:39:41.631Z,736.88
2022-08-26T07:40:41.619Z,798.75
2022-08-26T07:41:41.630Z,821.25
2022-08-26T07:42:41.599Z,849.38
2022-08-26T07:43:41.584Z,894.38
2022-08-26T07:44:41.581Z,928.12
2022-08-26T07:45:41.570Z,961.88
2022-08-26T07:46:41.561Z,961.88
2022-08-26T07:47:41.569Z,1057.50
2022-08-26T07:48:41.548Z,1029.38
2022-08-26T07:49:41.591Z,1040.62
2022-08-26T07:50:49.347Z,990.00
2022-08-26T07:51:42.504Z,995.62
2022-08-26T07:52:41.491Z,1051.88
2022-08-26T07:53:41.501Z,1040.62
2022-08-26T07:54:41.471Z,1018.12
2022-08-26T07:55:41.462Z,1012.50
2022-08-26T07:56:41.446Z,1063.12
2022-08-26T07:57:41.432Z,1012.50
2022-08-26T07:58:41.423Z,1023.75
2022-08-26T07:59:41.432Z,1006.88
2022-08-26T08:00:41.404Z,1001.25
2022-08-26T08:01:41.474Z,956.25
2022-08-26T08:02:41.381Z,950.62
2022-08-26T08:03:41.373Z,950.62
2022-08-26T08:04:41.395Z,945.00
2022-08-26T08:05:41.495Z,967.50
2022-08-26T08:06:41.333Z,961.88
2022-08-26T08:07:45.019Z,978.75
2022-08-26T08:08:41.318Z,967.50
2022-08-26T08:09:41.295Z,973.12
2022-08-26T08:10:41.294Z,995.62
2022-08-26T08:11:41.296Z,973.12
2022-08-26T08:12:41.266Z,939.38
2022-08-26T08:13:41.279Z,905.62
2022-08-26T08:14:41.247Z,905.62
2022-08-26T08:15:41.236Z,894.38
2022-08-26T08:16:45.823Z,894.38
2022-08-26T08:17:42.217Z,860.62
2022-08-26T08:18:41.197Z,866.25
2022-08-26T08:19:41.185Z,894.38
2022-08-26T08:20:44.736Z,956.25
2022-08-26T08:21:42.167Z,990.00
2022-08-26T08:22:41.168Z,990.00
2022-08-26T08:23:41.138Z,1018.12
2022-08-26T08:24:41.128Z,1023.75
2022-08-26T08:25:41.119Z,961.88
2022-08-26T08:26:41.109Z,984.38
2022-08-26T08:27:41.118Z,1001.25
2022-08-26T08:28:41.079Z,956.25
2022-08-26T08:29:41.091Z,1001.25
2022-08-26T08:30:41.103Z,1085.62
2022-08-26T08:31:56.454Z,1215.00
2022-08-26T08:32:42.091Z,1091.25
2022-08-26T08:33:41.061Z,1164.38
2022-08-26T08:35:41.012Z,1985.62
2022-08-26T08:36:40.999Z,2334.38
2022-08-26T08:37:40.984Z,2638.12
2022-08-26T08:38:41.002Z,2210.62
2022-08-26T08:39:40.961Z,2176.88
2022-08-26T08:40:40.953Z,2407.50
2022-08-26T08:41:40.932Z,2694.38
2022-08-26T08:42:41.034Z,2925.00
2022-08-26T08:43:40.942Z,3155.62
2022-08-26T08:44:40.928Z,3228.75
2022-08-26T08:45:40.958Z,3251.25
2022-08-26T08:46:40.893Z,3048.75
2022-08-26T08:47:40.876Z,2373.75
2022-08-26T08:48:40.865Z,2216.25
2022-08-26T08:49:40.885Z,2126.25
2022-08-26T08:50:40.844Z,2070.00
2022-08-26T08:51:40.838Z,1996.88
2022-08-26T08:52:40.825Z,1963.12
2022-08-26T08:53:40.805Z,1648.12
2022-08-26T08:54:40.805Z,1389.38
2022-08-26T08:55:40.808Z,1153.12
2022-08-26T08:56:40.795Z,1085.62
2022-08-26T08:57:40.768Z,1113.75
2022-08-26T08:58:40.757Z,1108.12
2022-08-26T08:59:40.740Z,1108.12
2022-08-26T09:00:40.757Z,1136.25
2022-08-26T09:01:40.752Z,1170.00
2022-08-26T09:02:40.746Z,1170.00
2022-08-26T09:03:40.708Z,1220.62
2022-08-26T09:04:40.688Z,1299.38
2022-08-26T09:05:41.910Z,1389.38
2022-08-26T09:06:41.054Z,1451.25
2022-08-26T09:07:40.658Z,1518.75
2022-08-26T09:08:40.651Z,1586.25
2022-08-26T09:09:40.640Z,1636.88
2022-08-26T09:10:40.649Z,1861.88
2022-08-26T09:11:40.641Z,1951.88
2022-08-26T09:12:40.622Z,2030.62
2022-08-26T09:13:40.601Z,2086.88
2022-08-26T09:14:40.602Z,2244.38
2022-08-26T09:15:40.583Z,2233.12
2022-08-26T09:16:40.645Z,2182.50
2022-08-26T09:17:40.657Z,1890.00
2022-08-26T09:18:40.552Z,1901.25
2022-08-26T09:19:40.533Z,1929.38
2022-08-26T09:20:40.524Z,1636.88
2022-08-26T09:21:40.514Z,1783.12
2022-08-26T09:22:40.505Z,1856.25
2022-08-26T09:23:42.776Z,1507.50
2022-08-26T09:24:41.786Z,1293.75
2022-08-26T09:25:41.557Z,1063.12
2022-08-26T09:26:40.458Z,1068.75
2022-08-26T09:27:40.448Z,1186.88
2022-08-26T09:28:40.436Z,1226.25
2022-08-26T09:29:40.446Z,1248.75
2022-08-26T09:30:40.461Z,1445.62
2022-08-26T09:31:40.399Z,1603.12
2022-08-26T09:32:40.410Z,1760.62
2022-08-26T09:33:40.394Z,1839.38
2022-08-26T09:34:40.403Z,1715.62
2022-08-26T09:35:40.477Z,1873.12
2022-08-26T09:36:41.104Z,1968.75
2022-08-26T09:37:40.369Z,1822.50
2022-08-26T09:38:40.328Z,1524.38
2022-08-26T09:39:40.319Z,1096.88
2022-08-26T09:40:40.308Z,939.38
2022-08-26T09:41:40.329Z,922.50
2022-08-26T09:42:40.287Z,956.25
2022-08-26T09:43:40.279Z,967.50
2022-08-26T09:44:40.260Z,1001.25
2022-08-26T09:45:40.305Z,1023.75
2022-08-26T09:47:40.555Z,1023.75
2022-08-26T09:48:40.577Z,1029.38
2022-08-26T09:49:40.211Z,1040.62
2022-08-26T09:50:40.199Z,1040.62
2022-08-26T09:51:40.192Z,1040.62
2022-08-26T09:52:40.655Z,1040.62
2022-08-26T09:53:40.183Z,1040.62
2022-08-26T09:54:40.163Z,1040.62
2022-08-26T09:55:40.153Z,1029.38
2022-08-26T09:56:40.144Z,1012.50
2022-08-26T09:57:40.134Z,995.62
2022-08-26T09:58:40.137Z,984.38
2022-08-26T09:59:40.105Z,967.50
2022-08-26T10:00:40.105Z,950.62
2022-08-26T10:01:40.171Z,939.38
2022-08-26T10:02:40.075Z,922.50
2022-08-26T10:03:40.065Z,916.88
2022-08-26T10:04:40.120Z,900.00
2022-08-26T10:05:40.048Z,888.75
2022-08-26T10:06:40.036Z,871.88
2022-08-26T10:07:40.027Z,860.62
2022-08-26T10:08:40.015Z,849.38
2022-08-26T10:09:40.029Z,832.50
2022-08-26T10:10:39.998Z,810.00
2022-08-26T10:11:39.987Z,776.25
2022-08-26T10:12:39.977Z,748.12
2022-08-26T10:13:39.968Z,725.62
2022-08-26T10:14:39.952Z,703.12
2022-08-26T10:15:39.969Z,691.88
2022-08-26T10:16:39.997Z,686.25
2022-08-26T10:17:39.921Z,680.62
2022-08-26T10:18:39.919Z,680.62
2022-08-26T10:19:55.567Z,675.00
2022-08-26T10:20:40.920Z,658.12
2022-08-26T10:21:39.880Z,646.88
2022-08-26T10:22:39.870Z,630.00
2022-08-26T10:24:39.850Z,613.12
2022-08-26T10:25:39.850Z,601.88
2022-08-26T10:26:39.851Z,596.25
2022-08-26T10:27:40.480Z,585.00
2022-08-26T10:28:40.804Z,579.38
2022-08-26T10:29:39.801Z,568.12
2022-08-26T10:30:39.798Z,562.50
2022-08-26T10:31:40.618Z,551.25
2022-08-26T10:32:41.371Z,545.62
2022-08-26T10:33:39.753Z,534.38
2022-08-26T10:34:39.754Z,528.75
2022-08-26T10:35:39.734Z,523.12
2022-08-26T10:36:58.643Z,517.50
2022-08-26T10:37:40.755Z,511.88
2022-08-26T10:38:39.695Z,511.88
2022-08-26T10:39:39.687Z,506.25
2022-08-26T10:41:31.348Z,500.62
2022-08-26T10:42:31.338Z,495.00
2022-08-26T10:43:31.348Z,495.00
2022-08-26T10:44:31.318Z,489.38
2022-08-26T10:45:31.365Z,489.38
2022-08-26T10:46:31.298Z,489.38
2022-08-26T10:47:31.364Z,489.38
2022-08-26T10:48:35.460Z,489.38
2022-08-26T10:49:31.279Z,489.38
2022-08-26T10:50:31.250Z,489.38
2022-08-26T10:51:31.239Z,489.38
2022-08-26T10:52:31.230Z,489.38
2022-08-26T10:53:32.734Z,489.38
2022-08-26T10:54:31.232Z,489.38
2022-08-26T10:55:31.193Z,483.75
2022-08-26T10:56:31.181Z,483.75
2022-08-26T10:57:31.173Z,489.38
2022-08-26T10:58:31.171Z,489.38
2022-08-26T10:59:31.152Z,489.38
2022-08-26T11:00:31.422Z,489.38
2022-08-26T11:01:31.178Z,489.38
2022-08-26T11:02:31.128Z,489.38
2022-08-26T11:03:31.115Z,489.38
2022-08-26T11:04:31.125Z,495.00
2022-08-26T11:05:31.087Z,495.00
2022-08-26T11:06:31.094Z,500.62
2022-08-26T11:07:31.690Z,500.62
2022-08-26T11:08:31.085Z,500.62
2022-08-26T11:09:31.045Z,500.62
2022-08-26T11:10:31.055Z,506.25
2022-08-26T11:11:31.064Z,511.88
2022-08-26T11:12:31.016Z,506.25
2022-08-26T11:13:30.998Z,506.25
2022-08-26T11:14:40.598Z,506.25
2022-08-26T11:15:31.977Z,506.25
2022-08-26T11:16:31.014Z,506.25
2022-08-26T11:17:30.987Z,506.25
2022-08-26T11:18:30.977Z,506.25
2022-08-26T11:19:50.558Z,500.62
2022-08-26T11:20:31.928Z,495.00
2022-08-26T11:21:30.917Z,489.38
2022-08-26T11:22:30.900Z,483.75
2022-08-26T11:23:30.909Z,478.12
2022-08-26T11:24:30.881Z,472.50
2022-08-26T11:25:31.163Z,472.50
2022-08-26T11:26:43.218Z,466.88
2022-08-26T11:27:31.855Z,466.88
2022-08-26T11:28:30.870Z,466.88
2022-08-26T11:29:30.831Z,466.88
2022-08-26T11:30:30.820Z,466.88
2022-08-26T11:31:31.754Z,472.50
2022-08-26T11:32:30.800Z,472.50
2022-08-26T11:33:30.783Z,478.12
2022-08-26T11:34:30.792Z,478.12
2022-08-26T11:35:30.765Z,478.12
2022-08-26T11:36:30.762Z,483.75
2022-08-26T11:37:30.831Z,483.75
2022-08-26T11:38:30.759Z,489.38
2022-08-26T11:39:30.745Z,500.62
2022-08-26T11:40:30.800Z,517.50
2022-08-26T11:41:30.705Z,528.75
2022-08-26T11:42:30.694Z,545.62
2022-08-26T11:43:30.676Z,562.50
2022-08-26T11:44:30.674Z,568.12
2022-08-26T11:45:30.745Z,568.12
2022-08-26T11:46:30.669Z,551.25
2022-08-26T11:47:30.638Z,540.00
2022-08-26T11:48:30.633Z,545.62
2022-08-26T11:49:30.616Z,545.62
2022-08-26T11:50:30.606Z,540.00
2022-08-26T11:51:30.625Z,472.50
2022-08-26T11:52:30.600Z,472.50
2022-08-26T11:53:30.578Z,478.12
2022-08-26T11:54:35.190Z,523.12
2022-08-26T11:55:31.557Z,551.25
2022-08-26T11:56:31.797Z,556.88
2022-08-26T11:57:30.538Z,562.50
2022-08-26T11:58:30.529Z,568.12
2022-08-26T11:59:30.538Z,568.12
2022-08-26T12:00:33.487Z,568.12
2022-08-26T12:01:31.282Z,568.12
2022-08-26T12:02:30.499Z,568.12
2022-08-26T12:03:30.546Z,568.12
2022-08-26T12:04:30.529Z,573.75
2022-08-26T12:05:31.214Z,573.75
2022-08-26T12:06:30.442Z,568.12
2022-08-26T12:07:30.475Z,573.75
2022-08-26T12:08:30.422Z,573.75
2022-08-26T12:09:30.414Z,573.75
2022-08-26T12:10:30.403Z,579.38
2022-08-26T12:11:30.402Z,585.00
2022-08-26T12:12:34.540Z,590.62
2022-08-26T12:13:30.404Z,596.25
2022-08-26T12:14:30.363Z,596.25
2022-08-26T12:15:30.353Z,596.25
2022-08-26T12:16:30.408Z,590.62
2022-08-26T12:17:30.332Z,585.00
2022-08-26T12:18:30.323Z,585.00
2022-08-26T12:19:32.627Z,585.00
2022-08-26T12:20:30.308Z,585.00
2022-08-26T12:21:31.515Z,534.38
2022-08-26T12:22:30.277Z,517.50
2022-08-26T12:23:30.266Z,511.88
2022-08-26T12:24:30.279Z,511.88
2022-08-26T12:25:35.904Z,511.88
2022-08-26T12:26:31.226Z,596.25
2022-08-26T12:27:30.227Z,607.50
2022-08-26T12:28:30.216Z,607.50
2022-08-26T12:29:30.207Z,607.50
2022-08-26T12:30:30.231Z,596.25
2022-08-26T12:31:30.194Z,556.88
2022-08-26T12:32:30.168Z,523.12
2022-08-26T12:33:30.156Z,495.00
2022-08-26T12:34:30.148Z,478.12
2022-08-26T12:35:30.128Z,466.88
2022-08-26T12:36:30.139Z,461.25
2022-08-26T12:37:30.119Z,455.62
2022-08-26T12:38:30.110Z,455.62
2022-08-26T12:39:30.092Z,455.62
2022-08-26T12:40:30.191Z,450.00
2022-08-26T12:41:30.090Z,444.38
2022-08-26T12:42:30.061Z,438.75
2022-08-26T12:43:30.051Z,433.12
2022-08-26T12:44:30.054Z,433.12
2022-08-26T12:45:30.051Z,438.75
2022-08-26T12:46:30.030Z,455.62
2022-08-26T12:47:42.109Z,466.88